sensor_id;sensor_type;location;lat;lon;timestamp;P1;durP1;ratioP1;P2;durP2;ratioP2
30370;SDS011;17164;48.590;11.410;2023-05-10T00:01:50;1.67;;;1.00;;
30370;SDS011;17164;48.590;11.410;2023-05-10T00:04:17;1.43;;;1.03;;
30370;SDS011;17164;48.590;11.410;2023-05-10T00:06:42;1.23;;;1.00;;
30370;SDS011;17164;48.590;11.410;2023-05-10T00:09:08;5.07;;;1.10;;
30370;SDS011;17164;48.590;11.410;2023-05-10T00:11:34;1.80;;;1.10;;
30370;SDS011;17164;48.590;11.410;2023-05-10T00:14:00;1.27;;;0.87;;
30370;SDS011;17164;48.590;11.410;2023-05-10T00:16:25;1.00;;;0.70;;
30370;SDS011;17164;48.590;11.410;2023-05-10T00:18:51;0.90;;;0.90;;
30370;SDS011;17164;48.590;11.410;2023-05-10T00:21:16;1.53;;;0.90;;
30370;SDS011;17164;48.590;11.410;2023-05-10T00:23:42;2.53;;;1.03;;
30370;SDS011;17164;48.590;11.410;2023-05-10T00:26:08;1.47;;;1.00;;
30370;SDS011;17164;48.590;11.410;2023-05-10T00:28:33;1.40;;;0.90;;
30370;SDS011;17164;48.590;11.410;2023-05-10T00:30:59;1.53;;;0.80;;
30370;SDS011;17164;48.590;11.410;2023-05-10T00:33:24;1.20;;;0.90;;
30370;SDS011;17164;48.590;11.410;2023-05-10T00:35:50;1.80;;;1.03;;
30370;SDS011;17164;48.590;11.410;2023-05-10T00:38:16;2.00;;;0.80;;
30370;SDS011;17164;48.590;11.410;2023-05-10T00:40:42;1.33;;;0.97;;
30370;SDS011;17164;48.590;11.410;2023-05-10T00:43:08;1.40;;;1.00;;
30370;SDS011;17164;48.590;11.410;2023-05-10T00:45:33;1.07;;;0.97;;
30370;SDS011;17164;48.590;11.410;2023-05-10T00:48:01;1.43;;;1.20;;
30370;SDS011;17164;48.590;11.410;2023-05-10T00:50:27;2.50;;;1.10;;
30370;SDS011;17164;48.590;11.410;2023-05-10T00:52:53;4.43;;;1.23;;
30370;SDS011;17164;48.590;11.410;2023-05-10T00:55:20;3.30;;;1.13;;
30370;SDS011;17164;48.590;11.410;2023-05-10T00:57:46;1.37;;;1.00;;
30370;SDS011;17164;48.590;11.410;2023-05-10T01:00:12;2.00;;;1.13;;
30370;SDS011;17164;48.590;11.410;2023-05-10T01:02:43;2.30;;;1.10;;
30370;SDS011;17164;48.590;11.410;2023-05-10T01:05:09;1.00;;;0.90;;
30370;SDS011;17164;48.590;11.410;2023-05-10T01:07:35;1.43;;;0.97;;
30370;SDS011;17164;48.590;11.410;2023-05-10T01:10:00;2.87;;;1.17;;
30370;SDS011;17164;48.590;11.410;2023-05-10T01:12:26;1.53;;;1.23;;
30370;SDS011;17164;48.590;11.410;2023-05-10T01:14:52;1.50;;;1.20;;
30370;SDS011;17164;48.590;11.410;2023-05-10T01:17:19;3.17;;;1.10;;
30370;SDS011;17164;48.590;11.410;2023-05-10T01:19:45;1.77;;;1.33;;
30370;SDS011;17164;48.590;11.410;2023-05-10T01:36:24;3.10;;;1.10;;
30370;SDS011;17164;48.590;11.410;2023-05-10T01:39:06;7.13;;;1.30;;
30370;SDS011;17164;48.590;11.410;2023-05-10T01:41:51;2.17;;;1.10;;
30370;SDS011;17164;48.590;11.410;2023-05-10T01:47:05;3.00;;;1.60;;
30370;SDS011;17164;48.590;11.410;2023-05-10T01:49:43;2.00;;;1.43;;
30370;SDS011;17164;48.590;11.410;2023-05-10T01:52:15;2.90;;;1.40;;
30370;SDS011;17164;48.590;11.410;2023-05-10T01:54:45;3.43;;;1.23;;
30370;SDS011;17164;48.590;11.410;2023-05-10T01:57:16;3.17;;;1.50;;
30370;SDS011;17164;48.590;11.410;2023-05-10T01:59:45;3.20;;;1.63;;
30370;SDS011;17164;48.590;11.410;2023-05-10T02:02:15;2.23;;;1.60;;
30370;SDS011;17164;48.590;11.410;2023-05-10T02:04:42;2.00;;;1.60;;
30370;SDS011;17164;48.590;11.410;2023-05-10T02:07:08;3.53;;;1.60;;
30370;SDS011;17164;48.590;11.410;2023-05-10T02:09:35;1.80;;;1.30;;
30370;SDS011;17164;48.590;11.410;2023-05-10T02:12:02;3.43;;;1.10;;
30370;SDS011;17164;48.590;11.410;2023-05-10T02:14:30;4.60;;;1.33;;
30370;SDS011;17164;48.590;11.410;2023-05-10T02:16:59;4.13;;;1.37;;
30370;SDS011;17164;48.590;11.410;2023-05-10T02:19:27;2.60;;;1.23;;
30370;SDS011;17164;48.590;11.410;2023-05-10T02:21:55;1.80;;;1.20;;
30370;SDS011;17164;48.590;11.410;2023-05-10T02:24:21;3.20;;;1.30;;
30370;SDS011;17164;48.590;11.410;2023-05-10T02:26:49;1.57;;;1.10;;
30370;SDS011;17164;48.590;11.410;2023-05-10T02:29:18;1.63;;;0.90;;
30370;SDS011;17164;48.590;11.410;2023-05-10T02:31:45;1.10;;;0.90;;
30370;SDS011;17164;48.590;11.410;2023-05-10T02:34:11;3.50;;;1.07;;
30370;SDS011;17164;48.590;11.410;2023-05-10T02:36:37;1.33;;;0.80;;
30370;SDS011;17164;48.590;11.410;2023-05-10T02:39:05;2.37;;;0.70;;
30370;SDS011;17164;48.590;11.410;2023-05-10T02:41:35;0.53;;;0.53;;
30370;SDS011;17164;48.590;11.410;2023-05-10T02:44:01;1.23;;;0.80;;
30370;SDS011;17164;48.590;11.410;2023-05-10T02:46:28;1.00;;;0.70;;
30370;SDS011;17164;48.590;11.410;2023-05-10T02:48:54;1.10;;;0.60;;
30370;SDS011;17164;48.590;11.410;2023-05-10T02:51:20;1.03;;;0.70;;
30370;SDS011;17164;48.590;11.410;2023-05-10T02:53:50;1.43;;;0.80;;
30370;SDS011;17164;48.590;11.410;2023-05-10T02:56:40;1.23;;;0.60;;
30370;SDS011;17164;48.590;11.410;2023-05-10T02:59:07;0.60;;;0.50;;
30370;SDS011;17164;48.590;11.410;2023-05-10T03:01:33;0.50;;;0.50;;
30370;SDS011;17164;48.590;11.410;2023-05-10T03:03:59;1.27;;;0.67;;
30370;SDS011;17164;48.590;11.410;2023-05-10T03:06:25;1.60;;;0.73;;
30370;SDS011;17164;48.590;11.410;2023-05-10T03:08:50;4.37;;;0.83;;
30370;SDS011;17164;48.590;11.410;2023-05-10T03:17:22;3.83;;;0.70;;
30370;SDS011;17164;48.590;11.410;2023-05-10T03:19:53;4.60;;;0.93;;
30370;SDS011;17164;48.590;11.410;2023-05-10T03:22:31;1.10;;;1.00;;
30370;SDS011;17164;48.590;11.410;2023-05-10T03:25:02;1.40;;;0.83;;
30370;SDS011;17164;48.590;11.410;2023-05-10T03:27:31;1.97;;;0.90;;
30370;SDS011;17164;48.590;11.410;2023-05-10T03:29:57;2.97;;;1.00;;
30370;SDS011;17164;48.590;11.410;2023-05-10T03:32:23;1.47;;;1.20;;
30370;SDS011;17164;48.590;11.410;2023-05-10T03:34:49;2.50;;;1.17;;
30370;SDS011;17164;48.590;11.410;2023-05-10T03:37:14;2.30;;;1.20;;
30370;SDS011;17164;48.590;11.410;2023-05-10T03:39:40;1.03;;;0.93;;
30370;SDS011;17164;48.590;11.410;2023-05-10T03:42:06;1.77;;;1.20;;
30370;SDS011;17164;48.590;11.410;2023-05-10T03:44:31;2.90;;;1.17;;
30370;SDS011;17164;48.590;11.410;2023-05-10T03:46:58;1.47;;;1.13;;
30370;SDS011;17164;48.590;11.410;2023-05-10T03:49:24;1.30;;;1.17;;
30370;SDS011;17164;48.590;11.410;2023-05-10T03:51:50;1.60;;;1.23;;
30370;SDS011;17164;48.590;11.410;2023-05-10T03:54:15;1.10;;;1.00;;
30370;SDS011;17164;48.590;11.410;2023-05-10T03:56:41;1.20;;;1.10;;
30370;SDS011;17164;48.590;11.410;2023-05-10T03:59:06;2.33;;;1.03;;
30370;SDS011;17164;48.590;11.410;2023-05-10T04:01:33;1.20;;;0.90;;
30370;SDS011;17164;48.590;11.410;2023-05-10T04:03:59;2.70;;;1.07;;
30370;SDS011;17164;48.590;11.410;2023-05-10T04:06:25;1.53;;;1.00;;
30370;SDS011;17164;48.590;11.410;2023-05-10T04:08:51;2.20;;;1.00;;
30370;SDS011;17164;48.590;11.410;2023-05-10T04:11:16;1.43;;;1.10;;
30370;SDS011;17164;48.590;11.410;2023-05-10T04:13:42;1.93;;;0.97;;
30370;SDS011;17164;48.590;11.410;2023-05-10T04:16:08;1.87;;;1.40;;
30370;SDS011;17164;48.590;11.410;2023-05-10T04:18:33;2.27;;;1.17;;
30370;SDS011;17164;48.590;11.410;2023-05-10T04:21:00;0.73;;;0.70;;
30370;SDS011;17164;48.590;11.410;2023-05-10T04:23:26;0.50;;;0.50;;
30370;SDS011;17164;48.590;11.410;2023-05-10T04:25:52;0.93;;;0.70;;
30370;SDS011;17164;48.590;11.410;2023-05-10T04:28:23;0.50;;;0.30;;
30370;SDS011;17164;48.590;11.410;2023-05-10T04:30:49;0.70;;;0.40;;
30370;SDS011;17164;48.590;11.410;2023-05-10T04:33:15;1.23;;;0.40;;
30370;SDS011;17164;48.590;11.410;2023-05-10T04:35:40;1.80;;;0.30;;
30370;SDS011;17164;48.590;11.410;2023-05-10T04:38:06;0.77;;;0.40;;
30370;SDS011;17164;48.590;11.410;2023-05-10T04:40:31;3.00;;;0.30;;
30370;SDS011;17164;48.590;11.410;2023-05-10T04:42:58;0.40;;;0.40;;
30370;SDS011;17164;48.590;11.410;2023-05-10T04:45:23;0.40;;;0.30;;
30370;SDS011;17164;48.590;11.410;2023-05-10T04:47:49;0.40;;;0.33;;
30370;SDS011;17164;48.590;11.410;2023-05-10T04:50:14;0.80;;;0.50;;
30370;SDS011;17164;48.590;11.410;2023-05-10T04:52:40;0.60;;;0.37;;
30370;SDS011;17164;48.590;11.410;2023-05-10T04:55:06;2.80;;;0.30;;
30370;SDS011;17164;48.590;11.410;2023-05-10T04:57:34;2.60;;;0.40;;
30370;SDS011;17164;48.590;11.410;2023-05-10T05:00:00;0.63;;;0.30;;
30370;SDS011;17164;48.590;11.410;2023-05-10T05:02:25;0.80;;;0.40;;
30370;SDS011;17164;48.590;11.410;2023-05-10T05:04:51;0.30;;;0.30;;
30370;SDS011;17164;48.590;11.410;2023-05-10T05:07:16;2.07;;;0.50;;
30370;SDS011;17164;48.590;11.410;2023-05-10T05:09:42;3.40;;;0.50;;
30370;SDS011;17164;48.590;11.410;2023-05-10T05:12:07;3.23;;;0.40;;
30370;SDS011;17164;48.590;11.410;2023-05-10T05:14:38;0.33;;;0.33;;
30370;SDS011;17164;48.590;11.410;2023-05-10T05:17:04;0.90;;;0.50;;
30370;SDS011;17164;48.590;11.410;2023-05-10T05:19:30;1.60;;;0.60;;
30370;SDS011;17164;48.590;11.410;2023-05-10T05:21:56;0.77;;;0.47;;
30370;SDS011;17164;48.590;11.410;2023-05-10T05:24:22;1.30;;;0.40;;
30370;SDS011;17164;48.590;11.410;2023-05-10T05:26:47;0.40;;;0.33;;
30370;SDS011;17164;48.590;11.410;2023-05-10T05:29:13;0.30;;;0.30;;
30370;SDS011;17164;48.590;11.410;2023-05-10T05:31:39;0.37;;;0.30;;
30370;SDS011;17164;48.590;11.410;2023-05-10T05:34:04;1.70;;;0.53;;
30370;SDS011;17164;48.590;11.410;2023-05-10T05:36:30;1.03;;;0.30;;
30370;SDS011;17164;48.590;11.410;2023-05-10T05:38:56;0.40;;;0.40;;
30370;SDS011;17164;48.590;11.410;2023-05-10T05:41:22;3.17;;;0.47;;
30370;SDS011;17164;48.590;11.410;2023-05-10T05:43:49;0.67;;;0.50;;
30370;SDS011;17164;48.590;11.410;2023-05-10T05:46:15;1.07;;;0.50;;
30370;SDS011;17164;48.590;11.410;2023-05-10T05:48:40;1.73;;;0.60;;
30370;SDS011;17164;48.590;11.410;2023-05-10T05:51:06;0.40;;;0.40;;
30370;SDS011;17164;48.590;11.410;2023-05-10T05:53:31;0.60;;;0.40;;
30370;SDS011;17164;48.590;11.410;2023-05-10T05:55:57;2.40;;;0.43;;
30370;SDS011;17164;48.590;11.410;2023-05-10T05:58:24;1.23;;;0.47;;
30370;SDS011;17164;48.590;11.410;2023-05-10T06:00:50;2.40;;;0.70;;
30370;SDS011;17164;48.590;11.410;2023-05-10T06:03:19;1.67;;;0.60;;
30370;SDS011;17164;48.590;11.410;2023-05-10T06:05:45;1.27;;;0.90;;
30370;SDS011;17164;48.590;11.410;2023-05-10T06:08:11;0.60;;;0.40;;
30370;SDS011;17164;48.590;11.410;2023-05-10T06:10:36;1.57;;;0.70;;
30370;SDS011;17164;48.590;11.410;2023-05-10T06:13:02;0.57;;;0.57;;
30370;SDS011;17164;48.590;11.410;2023-05-10T06:15:28;0.77;;;0.70;;
30370;SDS011;17164;48.590;11.410;2023-05-10T06:17:53;2.00;;;0.53;;
30370;SDS011;17164;48.590;11.410;2023-05-10T06:20:19;1.10;;;0.50;;
30370;SDS011;17164;48.590;11.410;2023-05-10T06:22:44;0.90;;;0.70;;
30370;SDS011;17164;48.590;11.410;2023-05-10T06:25:10;1.43;;;0.60;;
30370;SDS011;17164;48.590;11.410;2023-05-10T06:27:36;1.47;;;0.77;;
30370;SDS011;17164;48.590;11.410;2023-05-10T06:30:02;0.97;;;0.87;;
30370;SDS011;17164;48.590;11.410;2023-05-10T06:32:28;0.83;;;0.80;;
30370;SDS011;17164;48.590;11.410;2023-05-10T06:34:53;0.87;;;0.70;;
30370;SDS011;17164;48.590;11.410;2023-05-10T06:37:20;0.70;;;0.70;;
30370;SDS011;17164;48.590;11.410;2023-05-10T06:39:46;1.70;;;0.80;;
30370;SDS011;17164;48.590;11.410;2023-05-10T06:42:11;0.97;;;0.70;;
30370;SDS011;17164;48.590;11.410;2023-05-10T06:44:37;1.27;;;1.07;;
30370;SDS011;17164;48.590;11.410;2023-05-10T06:47:02;1.83;;;0.70;;
30370;SDS011;17164;48.590;11.410;2023-05-10T06:49:28;3.50;;;1.03;;
30370;SDS011;17164;48.590;11.410;2023-05-10T06:51:55;3.10;;;0.90;;
30370;SDS011;17164;48.590;11.410;2023-05-10T06:54:20;1.90;;;1.00;;
30370;SDS011;17164;48.590;11.410;2023-05-10T06:56:46;1.00;;;0.80;;
30370;SDS011;17164;48.590;11.410;2023-05-10T06:59:12;2.13;;;0.90;;
30370;SDS011;17164;48.590;11.410;2023-05-10T07:01:38;1.40;;;1.20;;
30370;SDS011;17164;48.590;11.410;2023-05-10T07:04:04;1.10;;;0.80;;
30370;SDS011;17164;48.590;11.410;2023-05-10T07:06:30;1.73;;;0.87;;
30370;SDS011;17164;48.590;11.410;2023-05-10T07:08:55;2.50;;;1.00;;
30370;SDS011;17164;48.590;11.410;2023-05-10T07:11:21;3.10;;;0.90;;
30370;SDS011;17164;48.590;11.410;2023-05-10T07:13:46;1.00;;;0.90;;
30370;SDS011;17164;48.590;11.410;2023-05-10T07:16:12;3.47;;;1.17;;
30370;SDS011;17164;48.590;11.410;2023-05-10T07:18:37;2.37;;;1.20;;
30370;SDS011;17164;48.590;11.410;2023-05-10T07:21:03;1.47;;;1.07;;
30370;SDS011;17164;48.590;11.410;2023-05-10T07:23:29;1.30;;;0.93;;
30370;SDS011;17164;48.590;11.410;2023-05-10T07:25:55;1.50;;;1.17;;
30370;SDS011;17164;48.590;11.410;2023-05-10T07:28:22;3.00;;;1.00;;
30370;SDS011;17164;48.590;11.410;2023-05-10T07:30:49;1.07;;;0.97;;
30370;SDS011;17164;48.590;11.410;2023-05-10T07:33:15;2.27;;;1.00;;
30370;SDS011;17164;48.590;11.410;2023-05-10T07:35:40;1.00;;;0.80;;
30370;SDS011;17164;48.590;11.410;2023-05-10T07:38:07;1.50;;;0.87;;
30370;SDS011;17164;48.590;11.410;2023-05-10T07:40:32;1.30;;;0.93;;
30370;SDS011;17164;48.590;11.410;2023-05-10T07:42:58;1.07;;;0.97;;
30370;SDS011;17164;48.590;11.410;2023-05-10T07:45:26;3.10;;;1.00;;
30370;SDS011;17164;48.590;11.410;2023-05-10T07:47:52;1.83;;;0.87;;
30370;SDS011;17164;48.590;11.410;2023-05-10T07:50:17;1.47;;;0.90;;
30370;SDS011;17164;48.590;11.410;2023-05-10T07:52:43;1.53;;;0.87;;
30370;SDS011;17164;48.590;11.410;2023-05-10T07:55:09;1.87;;;1.03;;
30370;SDS011;17164;48.590;11.410;2023-05-10T07:57:35;2.27;;;1.00;;
30370;SDS011;17164;48.590;11.410;2023-05-10T08:00:01;2.50;;;1.10;;
30370;SDS011;17164;48.590;11.410;2023-05-10T08:02:27;2.27;;;1.00;;
30370;SDS011;17164;48.590;11.410;2023-05-10T08:04:53;1.40;;;1.00;;
30370;SDS011;17164;48.590;11.410;2023-05-10T08:07:18;0.90;;;0.73;;
30370;SDS011;17164;48.590;11.410;2023-05-10T08:09:44;1.30;;;0.80;;
30370;SDS011;17164;48.590;11.410;2023-05-10T08:12:10;2.70;;;1.07;;
30370;SDS011;17164;48.590;11.410;2023-05-10T08:14:35;1.67;;;0.90;;
30370;SDS011;17164;48.590;11.410;2023-05-10T08:17:04;1.13;;;0.80;;
30370;SDS011;17164;48.590;11.410;2023-05-10T08:19:30;1.13;;;0.80;;
30370;SDS011;17164;48.590;11.410;2023-05-10T08:21:55;1.07;;;0.60;;
30370;SDS011;17164;48.590;11.410;2023-05-10T08:24:22;3.20;;;1.50;;
30370;SDS011;17164;48.590;11.410;2023-05-10T08:26:47;1.93;;;0.70;;
30370;SDS011;17164;48.590;11.410;2023-05-10T08:29:13;1.83;;;1.27;;
30370;SDS011;17164;48.590;11.410;2023-05-10T08:31:39;1.10;;;0.80;;
30370;SDS011;17164;48.590;11.410;2023-05-10T08:34:05;3.17;;;0.80;;
30370;SDS011;17164;48.590;11.410;2023-05-10T08:36:30;1.20;;;0.80;;
30370;SDS011;17164;48.590;11.410;2023-05-10T08:38:57;1.33;;;0.90;;
30370;SDS011;17164;48.590;11.410;2023-05-10T08:41:23;1.50;;;0.90;;
30370;SDS011;17164;48.590;11.410;2023-05-10T08:43:51;1.90;;;0.80;;
30370;SDS011;17164;48.590;11.410;2023-05-10T08:46:18;1.37;;;0.93;;
30370;SDS011;17164;48.590;11.410;2023-05-10T08:48:44;1.47;;;0.90;;
30370;SDS011;17164;48.590;11.410;2023-05-10T08:51:13;0.87;;;0.60;;
30370;SDS011;17164;48.590;11.410;2023-05-10T08:53:40;2.33;;;0.70;;
30370;SDS011;17164;48.590;11.410;2023-05-10T08:56:06;1.37;;;0.93;;
30370;SDS011;17164;48.590;11.410;2023-05-10T08:58:32;0.77;;;0.63;;
30370;SDS011;17164;48.590;11.410;2023-05-10T09:00:58;1.33;;;0.60;;
30370;SDS011;17164;48.590;11.410;2023-05-10T09:03:25;7.07;;;0.80;;
30370;SDS011;17164;48.590;11.410;2023-05-10T09:05:51;4.30;;;1.00;;
30370;SDS011;17164;48.590;11.410;2023-05-10T09:08:17;1.13;;;0.80;;
30370;SDS011;17164;48.590;11.410;2023-05-10T09:10:43;0.97;;;0.70;;
30370;SDS011;17164;48.590;11.410;2023-05-10T09:13:12;1.77;;;0.90;;
30370;SDS011;17164;48.590;11.410;2023-05-10T09:15:43;1.17;;;0.70;;
30370;SDS011;17164;48.590;11.410;2023-05-10T09:18:09;2.50;;;0.90;;
30370;SDS011;17164;48.590;11.410;2023-05-10T09:20:35;4.07;;;0.90;;
30370;SDS011;17164;48.590;11.410;2023-05-10T09:23:01;1.47;;;0.90;;
30370;SDS011;17164;48.590;11.410;2023-05-10T09:25:26;1.27;;;0.77;;
30370;SDS011;17164;48.590;11.410;2023-05-10T09:27:52;2.13;;;1.00;;
30370;SDS011;17164;48.590;11.410;2023-05-10T09:32:50;4.17;;;2.27;;
30370;SDS011;17164;48.590;11.410;2023-05-10T09:35:17;2.20;;;0.70;;
30370;SDS011;17164;48.590;11.410;2023-05-10T09:37:48;1.07;;;0.80;;
30370;SDS011;17164;48.590;11.410;2023-05-10T09:40:19;1.73;;;0.80;;
30370;SDS011;17164;48.590;11.410;2023-05-10T09:42:54;3.70;;;1.13;;
30370;SDS011;17164;48.590;11.410;2023-05-10T09:45:26;0.83;;;0.73;;
30370;SDS011;17164;48.590;11.410;2023-05-10T09:47:53;1.50;;;0.83;;
30370;SDS011;17164;48.590;11.410;2023-05-10T09:50:20;1.23;;;0.90;;
30370;SDS011;17164;48.590;11.410;2023-05-10T09:52:50;2.07;;;0.90;;
30370;SDS011;17164;48.590;11.410;2023-05-10T09:58:03;0.87;;;0.60;;
30370;SDS011;17164;48.590;11.410;2023-05-10T10:00:35;1.30;;;0.73;;
30370;SDS011;17164;48.590;11.410;2023-05-10T10:03:03;1.10;;;0.70;;
30370;SDS011;17164;48.590;11.410;2023-05-10T10:05:32;2.20;;;0.90;;
30370;SDS011;17164;48.590;11.410;2023-05-10T10:08:00;1.37;;;0.70;;
30370;SDS011;17164;48.590;11.410;2023-05-10T10:10:27;4.83;;;0.60;;
30370;SDS011;17164;48.590;11.410;2023-05-10T10:12:53;1.97;;;0.67;;
30370;SDS011;17164;48.590;11.410;2023-05-10T10:15:20;2.07;;;0.70;;
30370;SDS011;17164;48.590;11.410;2023-05-10T10:17:46;2.23;;;0.70;;
30370;SDS011;17164;48.590;11.410;2023-05-10T10:20:14;1.27;;;0.57;;
30370;SDS011;17164;48.590;11.410;2023-05-10T10:22:40;1.27;;;0.60;;
30370;SDS011;17164;48.590;11.410;2023-05-10T10:25:06;1.33;;;0.67;;
30370;SDS011;17164;48.590;11.410;2023-05-10T10:35:19;1.30;;;0.60;;
30370;SDS011;17164;48.590;11.410;2023-05-10T10:37:46;2.93;;;0.70;;
30370;SDS011;17164;48.590;11.410;2023-05-10T10:40:25;1.53;;;0.70;;
30370;SDS011;17164;48.590;11.410;2023-05-10T10:42:52;1.90;;;0.70;;
30370;SDS011;17164;48.590;11.410;2023-05-10T10:45:19;1.77;;;0.60;;
30370;SDS011;17164;48.590;11.410;2023-05-10T10:47:46;2.57;;;1.13;;
30370;SDS011;17164;48.590;11.410;2023-05-10T10:50:11;1.23;;;0.80;;
30370;SDS011;17164;48.590;11.410;2023-05-10T10:52:44;2.90;;;0.80;;
30370;SDS011;17164;48.590;11.410;2023-05-10T10:55:17;0.93;;;0.70;;
30370;SDS011;17164;48.590;11.410;2023-05-10T10:57:50;1.33;;;0.70;;
30370;SDS011;17164;48.590;11.410;2023-05-10T11:00:24;1.10;;;0.67;;
30370;SDS011;17164;48.590;11.410;2023-05-10T11:02:51;2.33;;;1.10;;
30370;SDS011;17164;48.590;11.410;2023-05-10T11:08:27;4.13;;;1.20;;
30370;SDS011;17164;48.590;11.410;2023-05-10T11:18:40;1.70;;;0.90;;
30370;SDS011;17164;48.590;11.410;2023-05-10T11:21:16;2.67;;;0.80;;
30370;SDS011;17164;48.590;11.410;2023-05-10T11:23:52;3.20;;;0.60;;
30370;SDS011;17164;48.590;11.410;2023-05-10T11:26:22;1.50;;;0.60;;
30370;SDS011;17164;48.590;11.410;2023-05-10T11:28:51;2.33;;;0.70;;
30370;SDS011;17164;48.590;11.410;2023-05-10T11:31:19;1.63;;;0.43;;
30370;SDS011;17164;48.590;11.410;2023-05-10T11:33:46;1.17;;;0.43;;
30370;SDS011;17164;48.590;11.410;2023-05-10T11:36:13;2.67;;;0.70;;
30370;SDS011;17164;48.590;11.410;2023-05-10T11:38:40;0.93;;;0.53;;
30370;SDS011;17164;48.590;11.410;2023-05-10T11:41:07;0.70;;;0.50;;
30370;SDS011;17164;48.590;11.410;2023-05-10T11:43:38;4.00;;;0.80;;
30370;SDS011;17164;48.590;11.410;2023-05-10T11:46:06;3.40;;;0.80;;
30370;SDS011;17164;48.590;11.410;2023-05-10T11:48:35;2.13;;;0.60;;
30370;SDS011;17164;48.590;11.410;2023-05-10T11:51:03;0.70;;;0.30;;
30370;SDS011;17164;48.590;11.410;2023-05-10T11:53:30;0.53;;;0.30;;
30370;SDS011;17164;48.590;11.410;2023-05-10T11:56:06;0.30;;;0.30;;
30370;SDS011;17164;48.590;11.410;2023-05-10T11:58:36;2.30;;;0.43;;
30370;SDS011;17164;48.590;11.410;2023-05-10T12:01:03;1.13;;;0.30;;
30370;SDS011;17164;48.590;11.410;2023-05-10T12:03:30;2.57;;;0.30;;
30370;SDS011;17164;48.590;11.410;2023-05-10T12:05:56;1.43;;;0.30;;
30370;SDS011;17164;48.590;11.410;2023-05-10T12:08:23;1.57;;;0.40;;
30370;SDS011;17164;48.590;11.410;2023-05-10T12:10:50;0.90;;;0.50;;
30370;SDS011;17164;48.590;11.410;2023-05-10T12:13:17;0.53;;;0.47;;
30370;SDS011;17164;48.590;11.410;2023-05-10T12:15:43;1.90;;;0.50;;
30370;SDS011;17164;48.590;11.410;2023-05-10T12:18:10;0.67;;;0.50;;
30370;SDS011;17164;48.590;11.410;2023-05-10T12:20:36;1.27;;;0.50;;
30370;SDS011;17164;48.590;11.410;2023-05-10T12:23:03;1.53;;;0.60;;
30370;SDS011;17164;48.590;11.410;2023-05-10T12:25:31;0.93;;;0.50;;
30370;SDS011;17164;48.590;11.410;2023-05-10T12:28:02;1.10;;;0.50;;
30370;SDS011;17164;48.590;11.410;2023-05-10T12:30:30;0.80;;;0.40;;
30370;SDS011;17164;48.590;11.410;2023-05-10T12:33:00;1.40;;;0.50;;
30370;SDS011;17164;48.590;11.410;2023-05-10T12:35:43;1.70;;;0.73;;
30370;SDS011;17164;48.590;11.410;2023-05-10T12:41:16;1.50;;;0.70;;
30370;SDS011;17164;48.590;11.410;2023-05-10T12:43:43;1.03;;;0.70;;
30370;SDS011;17164;48.590;11.410;2023-05-10T12:46:12;1.40;;;1.10;;
30370;SDS011;17164;48.590;11.410;2023-05-10T12:48:40;2.00;;;0.87;;
30370;SDS011;17164;48.590;11.410;2023-05-10T12:51:06;2.40;;;0.70;;
30370;SDS011;17164;48.590;11.410;2023-05-10T12:53:37;1.47;;;0.70;;
30370;SDS011;17164;48.590;11.410;2023-05-10T12:56:06;1.57;;;0.67;;
30370;SDS011;17164;48.590;11.410;2023-05-10T12:58:32;2.13;;;1.00;;
30370;SDS011;17164;48.590;11.410;2023-05-10T13:00:59;1.07;;;0.70;;
30370;SDS011;17164;48.590;11.410;2023-05-10T13:03:25;3.70;;;1.17;;
30370;SDS011;17164;48.590;11.410;2023-05-10T13:05:50;2.23;;;1.20;;
30370;SDS011;17164;48.590;11.410;2023-05-10T13:08:16;3.47;;;1.10;;
30370;SDS011;17164;48.590;11.410;2023-05-10T13:10:42;1.10;;;0.90;;
30370;SDS011;17164;48.590;11.410;2023-05-10T13:13:07;3.23;;;1.10;;
30370;SDS011;17164;48.590;11.410;2023-05-10T13:15:33;4.97;;;1.33;;
30370;SDS011;17164;48.590;11.410;2023-05-10T13:17:59;1.27;;;0.90;;
30370;SDS011;17164;48.590;11.410;2023-05-10T13:20:25;1.97;;;0.83;;
30370;SDS011;17164;48.590;11.410;2023-05-10T13:22:51;1.13;;;0.80;;
30370;SDS011;17164;48.590;11.410;2023-05-10T13:25:16;0.37;;;0.37;;
30370;SDS011;17164;48.590;11.410;2023-05-10T13:27:42;1.87;;;0.40;;
30370;SDS011;17164;48.590;11.410;2023-05-10T13:30:08;0.37;;;0.37;;
30370;SDS011;17164;48.590;11.410;2023-05-10T13:32:33;1.27;;;0.40;;
30370;SDS011;17164;48.590;11.410;2023-05-10T13:34:59;0.47;;;0.40;;
30370;SDS011;17164;48.590;11.410;2023-05-10T13:37:25;1.27;;;0.53;;
30370;SDS011;17164;48.590;11.410;2023-05-10T13:39:51;0.63;;;0.50;;
30370;SDS011;17164;48.590;11.410;2023-05-10T13:42:17;0.97;;;0.50;;
30370;SDS011;17164;48.590;11.410;2023-05-10T13:44:43;1.13;;;0.60;;
30370;SDS011;17164;48.590;11.410;2023-05-10T13:47:08;1.20;;;0.80;;
30370;SDS011;17164;48.590;11.410;2023-05-10T13:49:35;1.43;;;0.80;;
30370;SDS011;17164;48.590;11.410;2023-05-10T13:52:00;1.47;;;0.60;;
30370;SDS011;17164;48.590;11.410;2023-05-10T13:54:31;0.90;;;0.70;;
30370;SDS011;17164;48.590;11.410;2023-05-10T13:56:58;2.07;;;1.00;;
30370;SDS011;17164;48.590;11.410;2023-05-10T13:59:24;2.50;;;0.80;;
30370;SDS011;17164;48.590;11.410;2023-05-10T14:01:49;2.37;;;1.10;;
30370;SDS011;17164;48.590;11.410;2023-05-10T14:04:15;4.93;;;1.00;;
30370;SDS011;17164;48.590;11.410;2023-05-10T14:06:40;0.60;;;0.57;;
30370;SDS011;17164;48.590;11.410;2023-05-10T14:09:06;1.30;;;0.90;;
30370;SDS011;17164;48.590;11.410;2023-05-10T14:11:32;5.07;;;1.00;;
30370;SDS011;17164;48.590;11.410;2023-05-10T14:13:57;1.43;;;0.60;;
30370;SDS011;17164;48.590;11.410;2023-05-10T14:16:23;0.97;;;0.70;;
30370;SDS011;17164;48.590;11.410;2023-05-10T14:18:48;2.30;;;0.63;;
30370;SDS011;17164;48.590;11.410;2023-05-10T14:21:14;2.80;;;1.03;;
30370;SDS011;17164;48.590;11.410;2023-05-10T14:23:40;8.10;;;1.17;;
30370;SDS011;17164;48.590;11.410;2023-05-10T14:26:05;2.70;;;0.87;;
30370;SDS011;17164;48.590;11.410;2023-05-10T14:28:31;2.07;;;0.97;;
30370;SDS011;17164;48.590;11.410;2023-05-10T14:30:57;2.33;;;0.80;;
30370;SDS011;17164;48.590;11.410;2023-05-10T14:33:23;1.93;;;0.90;;
30370;SDS011;17164;48.590;11.410;2023-05-10T14:35:49;2.70;;;1.00;;
30370;SDS011;17164;48.590;11.410;2023-05-10T14:38:15;3.63;;;1.00;;
30370;SDS011;17164;48.590;11.410;2023-05-10T14:40:41;1.83;;;0.90;;
30370;SDS011;17164;48.590;11.410;2023-05-10T14:43:07;2.07;;;0.90;;
30370;SDS011;17164;48.590;11.410;2023-05-10T14:45:33;3.17;;;1.10;;
30370;SDS011;17164;48.590;11.410;2023-05-10T14:47:59;2.20;;;1.00;;
30370;SDS011;17164;48.590;11.410;2023-05-10T14:50:25;2.47;;;1.30;;
30370;SDS011;17164;48.590;11.410;2023-05-10T14:52:51;1.53;;;1.03;;
30370;SDS011;17164;48.590;11.410;2023-05-10T14:55:17;3.03;;;1.30;;
30370;SDS011;17164;48.590;11.410;2023-05-10T14:57:42;2.13;;;1.10;;
30370;SDS011;17164;48.590;11.410;2023-05-10T15:00:09;1.60;;;1.00;;
30370;SDS011;17164;48.590;11.410;2023-05-10T15:02:35;8.80;;;0.90;;
30370;SDS011;17164;48.590;11.410;2023-05-10T15:05:01;3.00;;;1.10;;
30370;SDS011;17164;48.590;11.410;2023-05-10T15:07:27;3.70;;;1.00;;
30370;SDS011;17164;48.590;11.410;2023-05-10T15:09:53;4.60;;;0.90;;
30370;SDS011;17164;48.590;11.410;2023-05-10T15:12:19;1.47;;;0.60;;
30370;SDS011;17164;48.590;11.410;2023-05-10T15:14:45;2.63;;;0.63;;
30370;SDS011;17164;48.590;11.410;2023-05-10T15:17:11;0.60;;;0.50;;
30370;SDS011;17164;48.590;11.410;2023-05-10T15:19:36;0.37;;;0.37;;
30370;SDS011;17164;48.590;11.410;2023-05-10T15:22:03;0.43;;;0.40;;